createdAt,value
2023-03-01T00:02:16.271Z,78.69
2023-03-01T00:04:43.183Z,78.59
2023-03-01T00:07:12.382Z,79.13
2023-03-01T00:09:39.306Z,78.47
2023-03-01T00:12:06.588Z,78.40
2023-03-01T00:14:33.695Z,78.85
2023-03-01T00:17:00.771Z,78.67
2023-03-01T00:19:27.497Z,78.84
2023-03-01T00:21:54.211Z,78.81
2023-03-01T00:24:20.901Z,80.18
2023-03-01T00:26:47.992Z,79.74
2023-03-01T00:29:14.900Z,79.22
2023-03-01T00:34:08.345Z,79.11
2023-03-01T00:36:37.665Z,79.65
2023-03-01T00:39:06.990Z,79.33
2023-03-01T00:41:35.769Z,80.46
2023-03-01T00:44:02.992Z,79.84
2023-03-01T00:46:31.671Z,80.41
2023-03-01T00:48:58.699Z,81.06
2023-03-01T00:51:27.977Z,81.32
2023-03-01T00:53:57.848Z,81.03
2023-03-01T00:56:24.947Z,80.99
2023-03-01T00:58:52.033Z,81.93
2023-03-01T01:01:22.112Z,81.72
2023-03-01T01:03:55.255Z,80.85
2023-03-01T01:06:24.824Z,81.03
2023-03-01T01:08:53.082Z,80.21
2023-03-01T01:11:20.778Z,80.59
2023-03-01T01:13:48.570Z,81.21
2023-03-01T01:16:16.558Z,80.65
2023-03-01T01:18:43.733Z,80.39
2023-03-01T01:21:14.365Z,79.60
2023-03-01T01:23:43.670Z,80.25
2023-03-01T01:26:13.773Z,79.74
2023-03-01T01:28:40.961Z,80.20
2023-03-01T01:31:08.579Z,79.81
2023-03-01T01:33:35.643Z,80.56
2023-03-01T01:36:02.307Z,81.34
2023-03-01T01:38:29.641Z,81.24
2023-03-01T01:40:56.473Z,81.26
2023-03-01T01:43:34.419Z,80.82
2023-03-01T01:46:06.659Z,80.45
2023-03-01T01:48:42.475Z,81.23
2023-03-01T01:51:16.509Z,81.81
2023-03-01T01:53:45.521Z,81.98
2023-03-01T01:56:14.093Z,82.06
2023-03-01T01:58:43.294Z,81.20
2023-03-01T02:01:10.064Z,82.24
2023-03-01T02:03:43.446Z,80.83
2023-03-01T02:06:20.593Z,80.39
2023-03-01T02:08:48.640Z,81.17
2023-03-01T02:11:16.000Z,80.28
2023-03-01T02:13:43.882Z,80.73
2023-03-01T02:16:14.359Z,81.13
2023-03-01T02:18:43.358Z,80.99
2023-03-01T02:21:28.958Z,81.80
2023-03-01T02:23:59.189Z,80.74
2023-03-01T02:26:38.110Z,81.64
2023-03-01T02:29:06.879Z,81.95
2023-03-01T02:34:11.804Z,82.12
2023-03-01T02:36:43.398Z,81.63
2023-03-01T02:39:17.771Z,81.04
2023-03-01T02:41:49.258Z,80.27
2023-03-01T02:44:17.099Z,81.26
2023-03-01T02:46:53.506Z,81.36
2023-03-01T02:49:32.998Z,81.22
2023-03-01T02:52:11.623Z,81.27
2023-03-01T02:54:42.432Z,81.15
2023-03-01T02:57:10.288Z,81.47
2023-03-01T03:02:09.600Z,81.75
2023-03-01T03:04:36.333Z,82.25
2023-03-01T03:07:03.002Z,82.44
2023-03-01T03:09:29.833Z,82.66
2023-03-01T03:11:56.527Z,82.70
2023-03-01T03:14:23.442Z,83.00
2023-03-01T03:16:51.699Z,82.67
2023-03-01T03:19:20.493Z,83.14
2023-03-01T03:21:47.585Z,83.28
2023-03-01T03:24:17.954Z,83.54
2023-03-01T03:26:44.599Z,83.07
2023-03-01T03:29:11.284Z,83.21
2023-03-01T03:31:38.297Z,82.97
2023-03-01T03:34:05.066Z,83.53
2023-03-01T03:36:31.981Z,82.96
2023-03-01T03:38:58.789Z,83.56
2023-03-01T03:41:25.553Z,82.83
2023-03-01T03:43:52.276Z,82.18
2023-03-01T03:46:19.222Z,82.76
2023-03-01T03:48:46.771Z,82.59
2023-03-01T03:51:15.764Z,82.55
2023-03-01T03:53:42.531Z,82.66
2023-03-01T03:56:09.846Z,82.18
2023-03-01T03:58:37.098Z,83.26
2023-03-01T04:01:04.468Z,82.35
2023-03-01T04:03:33.360Z,82.35
2023-03-01T04:06:01.643Z,82.15
2023-03-01T04:08:29.314Z,82.07
2023-03-01T04:11:23.119Z,82.23
2023-03-01T04:13:50.599Z,81.85
2023-03-01T04:16:18.945Z,81.85
2023-03-01T04:18:46.400Z,82.11
2023-03-01T04:21:13.355Z,81.98
2023-03-01T04:26:08.518Z,81.00
2023-03-01T04:31:18.537Z,79.78
2023-03-01T04:33:48.055Z,78.87
2023-03-01T04:36:16.997Z,78.72
2023-03-01T04:38:48.811Z,78.43
2023-03-01T04:41:17.662Z,79.33
2023-03-01T04:43:44.452Z,79.20
2023-03-01T04:46:17.242Z,78.01
2023-03-01T04:48:45.531Z,78.46
2023-03-01T04:51:15.809Z,77.51
2023-03-01T04:53:43.515Z,77.52
2023-03-01T04:56:11.458Z,77.48
2023-03-01T04:58:38.505Z,78.13
2023-03-01T05:01:31.752Z,77.98
2023-03-01T05:04:04.077Z,78.59
2023-03-01T05:06:31.212Z,78.14
2023-03-01T05:08:58.198Z,79.05
2023-03-01T05:11:24.972Z,78.63
2023-03-01T05:13:56.030Z,78.43
2023-03-01T05:16:22.945Z,78.39
2023-03-01T05:18:51.657Z,78.93
2023-03-01T05:21:18.506Z,78.93
2023-03-01T05:23:46.177Z,79.15
2023-03-01T05:26:27.494Z,79.08
2023-03-01T05:29:00.415Z,79.42
2023-03-01T05:31:28.244Z,79.78
2023-03-01T05:33:55.092Z,79.41
2023-03-01T05:36:21.958Z,80.19
2023-03-01T05:38:48.678Z,79.85
2023-03-01T05:41:18.247Z,80.45
2023-03-01T05:43:46.202Z,80.46
2023-03-01T05:46:14.609Z,80.21
2023-03-01T05:51:08.150Z,80.55
2023-03-01T05:53:34.987Z,80.25
2023-03-01T05:56:05.121Z,81.55
2023-03-01T05:58:32.003Z,81.51
2023-03-01T06:00:59.213Z,80.79
2023-03-01T06:03:28.880Z,81.69
2023-03-01T06:06:03.369Z,81.21
2023-03-01T06:08:30.035Z,80.94
2023-03-01T06:10:57.081Z,81.30
2023-03-01T06:13:24.766Z,80.73
2023-03-01T06:15:51.969Z,80.76
2023-03-01T06:18:18.850Z,79.93
2023-03-01T06:20:45.615Z,78.66
2023-03-01T06:23:19.860Z,78.32
2023-03-01T06:25:46.715Z,78.99
2023-03-01T06:28:13.518Z,78.57
2023-03-01T06:30:40.231Z,77.62
2023-03-01T06:33:07.035Z,78.11
2023-03-01T06:35:34.396Z,79.08
2023-03-01T06:38:06.845Z,79.17
2023-03-01T06:40:38.764Z,78.46
2023-03-01T06:43:05.559Z,79.12
2023-03-01T06:45:32.207Z,79.17
2023-03-01T06:48:08.745Z,78.66
2023-03-01T06:50:37.117Z,77.69
2023-03-01T06:53:03.942Z,77.66
2023-03-01T06:55:31.385Z,77.34
2023-03-01T06:57:59.801Z,76.01
2023-03-01T07:00:28.017Z,76.32
2023-03-01T07:02:55.879Z,76.03
2023-03-01T07:05:22.598Z,75.62
2023-03-01T07:07:49.307Z,75.90
2023-03-01T07:10:16.228Z,75.20
2023-03-01T07:12:42.922Z,75.02
2023-03-01T07:15:10.909Z,73.96
2023-03-01T07:17:37.631Z,74.79
2023-03-01T07:20:04.973Z,73.32
2023-03-01T07:22:31.680Z,73.48
2023-03-01T07:24:58.298Z,72.64
2023-03-01T07:27:25.111Z,72.08
2023-03-01T07:29:51.800Z,72.37
2023-03-01T07:32:18.602Z,72.40
2023-03-01T07:34:45.328Z,70.99
2023-03-01T07:37:11.958Z,70.33
2023-03-01T07:39:38.604Z,70.06
2023-03-01T07:42:05.271Z,69.73
2023-03-01T07:44:31.932Z,69.55
2023-03-01T07:46:59.360Z,69.63
2023-03-01T07:49:27.562Z,69.44
2023-03-01T07:51:54.488Z,69.14
2023-03-01T07:54:21.644Z,68.86
2023-03-01T07:56:48.330Z,68.05
2023-03-01T07:59:15.278Z,68.23
2023-03-01T08:04:09.979Z,67.45
2023-03-01T08:06:37.322Z,68.01
2023-03-01T08:09:04.268Z,67.84
2023-03-01T08:11:31.064Z,67.30
2023-03-01T08:13:58.597Z,67.55
2023-03-01T08:16:25.544Z,66.67
2023-03-01T08:18:52.308Z,65.89
2023-03-01T08:21:19.228Z,65.25
2023-03-01T08:23:46.297Z,64.86
2023-03-01T08:26:16.188Z,63.79
2023-03-01T08:28:42.936Z,62.96
2023-03-01T08:31:23.400Z,62.67
2023-03-01T08:33:56.417Z,62.71
2023-03-01T08:36:28.303Z,62.54
2023-03-01T08:38:55.996Z,62.00
2023-03-01T08:41:23.826Z,61.58
2023-03-01T08:43:51.532Z,61.13
2023-03-01T08:46:18.641Z,60.69
2023-03-01T08:48:45.354Z,59.15
2023-03-01T08:51:16.346Z,59.56
2023-03-01T08:53:43.014Z,58.21
2023-03-01T08:56:10.712Z,58.77
2023-03-01T08:58:38.731Z,58.08
2023-03-01T09:01:10.651Z,57.13
2023-03-01T09:03:38.958Z,56.31
2023-03-01T09:06:08.640Z,55.72
2023-03-01T09:08:39.761Z,55.73
2023-03-01T09:11:08.716Z,54.45
2023-03-01T09:13:35.750Z,53.42
2023-03-01T09:16:04.456Z,52.73
2023-03-01T09:18:31.790Z,52.79
2023-03-01T09:21:08.202Z,52.48
2023-03-01T09:23:43.932Z,51.97
2023-03-01T09:26:17.733Z,52.20
2023-03-01T09:28:45.722Z,53.00
2023-03-01T09:31:14.095Z,52.34
2023-03-01T09:36:13.646Z,52.28
2023-03-01T09:38:40.635Z,52.11
2023-03-01T09:41:44.617Z,51.60
2023-03-01T09:44:22.028Z,50.32
2023-03-01T09:46:49.459Z,50.22
2023-03-01T09:49:32.089Z,50.68
2023-03-01T09:52:03.931Z,50.78
2023-03-01T09:54:30.814Z,51.47
2023-03-01T09:57:18.931Z,50.79
2023-03-01T10:00:08.657Z,49.63
2023-03-01T10:05:30.606Z,49.40
2023-03-01T10:08:30.578Z,48.27
2023-03-01T10:10:58.508Z,48.41
2023-03-01T10:13:43.639Z,48.75
2023-03-01T10:16:18.352Z,48.65
2023-03-01T10:18:50.366Z,48.40
2023-03-01T10:21:20.797Z,48.38
2023-03-01T10:23:51.887Z,48.62
2023-03-01T10:26:43.920Z,47.62
2023-03-01T10:29:12.705Z,47.34
2023-03-01T10:31:43.546Z,46.58
2023-03-01T10:34:21.497Z,47.82
2023-03-01T10:36:53.784Z,46.49
2023-03-01T10:39:26.998Z,46.96
2023-03-01T10:41:58.052Z,45.83
2023-03-01T10:44:43.636Z,46.87
2023-03-01T10:47:21.542Z,46.27
2023-03-01T10:50:03.626Z,45.58
2023-03-01T10:52:35.089Z,45.82
2023-03-01T10:55:26.374Z,45.87
2023-03-01T10:58:25.258Z,45.18
2023-03-01T11:00:55.725Z,45.21
2023-03-01T11:03:35.425Z,44.10
2023-03-01T11:06:22.636Z,44.41
2023-03-01T11:08:51.875Z,44.56
2023-03-01T11:11:22.559Z,43.81
2023-03-01T11:14:01.793Z,42.65
2023-03-01T11:16:39.574Z,42.68
2023-03-01T11:19:12.104Z,43.39
2023-03-01T11:24:15.345Z,42.74
2023-03-01T11:26:42.686Z,42.64
2023-03-01T11:32:12.852Z,40.59
2023-03-01T11:34:43.727Z,40.15
2023-03-01T11:37:26.056Z,40.77
2023-03-01T11:40:13.756Z,40.42
2023-03-01T11:42:42.717Z,40.72
2023-03-01T11:45:13.614Z,40.60
2023-03-01T11:47:43.790Z,38.20
2023-03-01T11:50:16.794Z,36.17
2023-03-01T11:52:54.173Z,36.57
2023-03-01T11:55:26.705Z,36.14
2023-03-01T11:58:14.629Z,34.61
2023-03-01T12:00:44.168Z,33.60
2023-03-01T12:03:32.075Z,33.92
2023-03-01T12:06:10.655Z,32.25
2023-03-01T12:08:43.798Z,33.93
2023-03-01T12:11:43.930Z,34.03
2023-03-01T12:14:43.727Z,32.07
2023-03-01T12:17:19.931Z,33.08
2023-03-01T12:20:05.030Z,31.45
2023-03-01T12:22:43.613Z,32.73
2023-03-01T12:25:43.718Z,32.06
2023-03-01T12:28:25.298Z,32.26
2023-03-01T12:31:03.981Z,32.88
2023-03-01T12:33:44.092Z,29.63
2023-03-01T12:36:29.856Z,32.01
2023-03-01T12:39:04.342Z,33.25
2023-03-01T12:41:43.666Z,30.54
2023-03-01T12:44:44.908Z,32.39
2023-03-01T12:47:26.762Z,32.09
2023-03-01T12:49:59.243Z,32.83
2023-03-01T12:52:29.046Z,30.85
2023-03-01T12:54:59.179Z,31.83
2023-03-01T12:57:38.227Z,30.43
2023-03-01T13:00:27.497Z,30.50
2023-03-01T13:03:08.341Z,30.96
2023-03-01T13:05:43.771Z,32.01
2023-03-01T13:08:20.642Z,31.88
2023-03-01T13:10:55.083Z,32.21
2023-03-01T13:13:26.775Z,32.29
2023-03-01T13:15:54.524Z,31.23
2023-03-01T13:18:21.225Z,31.64
2023-03-01T13:20:50.159Z,29.19
2023-03-01T13:23:22.822Z,31.73
2023-03-01T13:26:01.572Z,31.73
2023-03-01T13:28:37.091Z,32.28
2023-03-01T13:31:06.109Z,31.33
2023-03-01T13:33:34.319Z,32.37
2023-03-01T13:36:02.306Z,31.39
2023-03-01T13:41:44.748Z,31.70
2023-03-01T13:44:25.445Z,32.13
2023-03-01T13:46:58.803Z,30.13
2023-03-01T13:49:46.619Z,31.57
2023-03-01T13:52:38.807Z,31.80
2023-03-01T13:55:17.800Z,30.29
2023-03-01T13:57:51.073Z,31.11
2023-03-01T14:00:38.573Z,29.73
2023-03-01T14:03:13.376Z,29.90
2023-03-01T14:05:42.701Z,28.68
2023-03-01T14:08:24.848Z,29.04
2023-03-01T14:11:06.747Z,30.49
2023-03-01T14:13:51.028Z,31.01
2023-03-01T14:16:26.729Z,30.71
2023-03-01T14:19:27.677Z,30.94
2023-03-01T14:22:20.835Z,32.33
2023-03-01T14:27:16.148Z,32.18
2023-03-01T14:29:43.263Z,30.40
2023-03-01T14:32:32.168Z,31.52
2023-03-01T14:35:00.779Z,30.14
2023-03-01T14:37:31.635Z,29.92
2023-03-01T14:40:00.324Z,31.53
2023-03-01T14:42:32.074Z,30.50
2023-03-01T14:45:01.516Z,29.40
2023-03-01T14:47:31.815Z,31.22
2023-03-01T14:50:16.277Z,31.83
2023-03-01T14:52:47.741Z,30.91
2023-03-01T14:55:31.503Z,31.31
2023-03-01T14:57:59.424Z,30.72
2023-03-01T15:00:31.576Z,32.49
2023-03-01T15:03:04.512Z,36.20
2023-03-01T15:05:33.989Z,34.12
2023-03-01T15:08:02.838Z,33.48
2023-03-01T15:10:32.417Z,33.29
2023-03-01T15:13:13.331Z,31.25
2023-03-01T15:15:44.523Z,31.63
2023-03-01T15:18:23.674Z,31.48
2023-03-01T15:20:51.163Z,33.13
2023-03-01T15:23:29.361Z,32.53
2023-03-01T15:26:01.734Z,31.61
2023-03-01T15:28:51.101Z,33.19
2023-03-01T15:31:23.801Z,33.29
2023-03-01T15:33:51.405Z,31.33
2023-03-01T15:36:33.365Z,32.08
2023-03-01T15:39:01.259Z,32.52
2023-03-01T15:41:46.551Z,33.72
2023-03-01T15:44:35.000Z,33.40
2023-03-01T15:47:32.867Z,31.79
2023-03-01T15:50:02.480Z,33.09
2023-03-01T15:52:37.874Z,33.07
2023-03-01T15:55:16.847Z,34.24
2023-03-01T15:57:43.914Z,36.07
2023-03-01T16:00:15.235Z,35.58
2023-03-01T16:02:43.665Z,36.13
2023-03-01T16:05:32.359Z,36.08
2023-03-01T16:07:59.282Z,36.53
2023-03-01T16:10:26.392Z,36.78
2023-03-01T16:12:53.766Z,37.81
2023-03-01T16:15:23.415Z,37.90
2023-03-01T16:17:51.213Z,39.60
2023-03-01T16:20:28.058Z,39.24
2023-03-01T16:22:59.079Z,40.12
2023-03-01T16:25:25.769Z,40.57
2023-03-01T16:27:52.606Z,41.08
2023-03-01T16:30:22.850Z,43.23
2023-03-01T16:32:51.638Z,44.52
2023-03-01T16:35:21.665Z,45.13
2023-03-01T16:40:27.949Z,46.36
2023-03-01T16:43:00.552Z,47.08
2023-03-01T16:45:39.887Z,47.62
2023-03-01T16:48:06.727Z,48.26
2023-03-01T16:50:33.752Z,48.83
2023-03-01T16:53:03.708Z,49.25
2023-03-01T16:55:30.442Z,49.42
2023-03-01T16:57:57.224Z,49.51
2023-03-01T17:00:24.220Z,49.77
2023-03-01T17:02:51.019Z,49.99
2023-03-01T17:05:19.017Z,50.45
2023-03-01T17:07:45.690Z,50.74
2023-03-01T17:10:12.538Z,51.22
2023-03-01T17:12:39.359Z,51.63
2023-03-01T17:15:07.713Z,51.76
2023-03-01T17:17:35.806Z,52.19
2023-03-01T17:20:04.798Z,52.25
2023-03-01T17:22:31.803Z,52.73
2023-03-01T17:24:58.845Z,53.23
2023-03-01T17:27:25.657Z,52.88
2023-03-01T17:29:52.452Z,53.02
2023-03-01T17:32:19.348Z,53.61
2023-03-01T17:34:46.850Z,53.96
2023-03-01T17:37:13.573Z,54.19
2023-03-01T17:39:40.293Z,54.43
2023-03-01T17:42:07.328Z,54.83
2023-03-01T17:44:35.484Z,54.71
2023-03-01T17:47:04.138Z,55.24
2023-03-01T17:49:31.458Z,55.44
2023-03-01T17:52:01.526Z,55.04
2023-03-01T17:54:28.975Z,55.46
2023-03-01T17:56:56.586Z,55.82
2023-03-01T17:59:24.039Z,55.74
2023-03-01T18:01:51.199Z,55.75
2023-03-01T18:04:18.749Z,56.35
2023-03-01T18:06:45.796Z,56.39
2023-03-01T18:09:12.461Z,57.11
2023-03-01T18:11:39.749Z,56.92
2023-03-01T18:14:06.469Z,57.29
2023-03-01T18:16:34.518Z,56.92
2023-03-01T18:19:01.976Z,57.41
2023-03-01T18:21:30.731Z,57.54
2023-03-01T18:23:59.793Z,57.84
2023-03-01T18:26:28.129Z,58.00
2023-03-01T18:28:58.451Z,58.30
2023-03-01T18:31:25.714Z,58.83
2023-03-01T18:33:55.232Z,58.80
2023-03-01T18:36:25.816Z,58.96
2023-03-01T18:38:55.573Z,59.02
2023-03-01T18:41:27.688Z,59.41
2023-03-01T18:43:56.112Z,59.34
2023-03-01T18:46:23.187Z,59.43
2023-03-01T18:51:19.021Z,59.34
2023-03-01T18:53:45.822Z,59.64
2023-03-01T18:56:13.858Z,59.21
2023-03-01T18:58:45.951Z,59.18
2023-03-01T19:01:20.979Z,59.36
2023-03-01T19:03:48.799Z,59.42
2023-03-01T19:06:16.408Z,59.95
2023-03-01T19:08:44.570Z,59.48
2023-03-01T19:11:17.518Z,60.13
2023-03-01T19:13:46.052Z,60.33
2023-03-01T19:16:19.604Z,60.56
2023-03-01T19:21:16.945Z,60.94
2023-03-01T19:23:44.060Z,60.83
2023-03-01T19:26:14.310Z,60.98
2023-03-01T19:28:41.808Z,61.73
2023-03-01T19:31:12.063Z,61.94
2023-03-01T19:33:41.856Z,62.08
2023-03-01T19:36:10.879Z,61.99
2023-03-01T19:38:39.735Z,62.68
2023-03-01T19:41:09.318Z,62.90
2023-03-01T19:43:36.490Z,62.86
2023-03-01T19:46:04.020Z,63.32
2023-03-01T19:48:31.392Z,63.31
2023-03-01T19:50:59.878Z,63.55
2023-03-01T19:53:27.042Z,63.72
2023-03-01T19:56:02.015Z,64.11
2023-03-01T19:58:31.251Z,64.38
2023-03-01T20:01:01.133Z,64.16
2023-03-01T20:03:29.976Z,64.43
2023-03-01T20:05:58.518Z,65.19
2023-03-01T20:08:26.437Z,65.43
2023-03-01T20:10:53.251Z,65.79
2023-03-01T20:13:21.397Z,65.73
2023-03-01T20:15:48.298Z,66.05
2023-03-01T20:18:15.323Z,66.84
2023-03-01T20:20:42.008Z,67.08
2023-03-01T20:23:09.590Z,67.01
2023-03-01T20:25:36.311Z,66.62
2023-03-01T20:28:03.622Z,67.80
2023-03-01T20:30:31.505Z,69.61
2023-03-01T20:32:58.204Z,67.36
2023-03-01T20:35:25.805Z,68.09
2023-03-01T20:37:53.593Z,67.16
2023-03-01T20:40:21.551Z,67.42
2023-03-01T20:42:48.791Z,67.07
2023-03-01T20:45:15.549Z,67.82
2023-03-01T20:47:42.245Z,67.84
2023-03-01T20:50:10.349Z,67.71
2023-03-01T20:52:47.097Z,68.21
2023-03-01T20:55:15.169Z,68.38
2023-03-01T20:57:42.213Z,68.49
2023-03-01T21:00:10.160Z,68.73
2023-03-01T21:02:39.176Z,68.47
2023-03-01T21:05:06.549Z,68.05
2023-03-01T21:07:33.288Z,68.69
2023-03-01T21:10:03.305Z,68.78
2023-03-01T21:12:31.230Z,68.41
2023-03-01T21:14:58.033Z,68.95
2023-03-01T21:17:24.942Z,68.78
2023-03-01T21:19:51.754Z,68.65
2023-03-01T21:22:18.662Z,68.82
2023-03-01T21:24:45.467Z,70.25
2023-03-01T21:27:12.983Z,68.75
2023-03-01T21:29:41.912Z,68.85
2023-03-01T21:32:10.198Z,69.33
2023-03-01T21:34:38.192Z,70.47
2023-03-01T21:37:05.849Z,70.06
2023-03-01T21:39:33.993Z,70.24
2023-03-01T21:42:02.633Z,70.32
2023-03-01T21:44:31.911Z,70.27
2023-03-01T21:46:59.344Z,69.93
2023-03-01T21:49:27.296Z,70.72
2023-03-01T21:51:54.326Z,70.69
2023-03-01T21:54:21.511Z,71.36
2023-03-01T21:59:18.713Z,71.64
2023-03-01T22:01:46.270Z,72.92
2023-03-01T22:04:13.705Z,72.20
2023-03-01T22:06:43.524Z,73.19
2023-03-01T22:09:18.388Z,72.18
2023-03-01T22:11:48.903Z,72.80
2023-03-01T22:14:18.149Z,72.29
2023-03-01T22:16:46.494Z,73.52
2023-03-01T22:19:15.399Z,72.80
2023-03-01T22:21:44.205Z,72.16
2023-03-01T22:24:11.789Z,72.19
2023-03-01T22:26:42.142Z,72.95
2023-03-01T22:29:13.928Z,73.71
2023-03-01T22:31:41.687Z,72.92
2023-03-01T22:34:09.516Z,72.83
2023-03-01T22:36:36.896Z,72.91
2023-03-01T22:39:04.473Z,73.06
2023-03-01T22:44:20.462Z,73.07
2023-03-01T22:46:47.425Z,72.66
2023-03-01T22:49:14.742Z,73.12
2023-03-01T22:51:44.195Z,72.08
2023-03-01T22:54:12.621Z,73.17
2023-03-01T22:56:39.872Z,72.49
2023-03-01T22:59:09.847Z,72.66
2023-03-01T23:01:38.664Z,72.67
2023-03-01T23:04:06.424Z,72.97
2023-03-01T23:06:34.286Z,72.45
2023-03-01T23:09:06.986Z,72.77
2023-03-01T23:11:34.365Z,72.81
2023-03-01T23:14:01.179Z,73.01
2023-03-01T23:16:31.834Z,73.42
2023-03-01T23:18:59.455Z,73.58
2023-03-01T23:21:27.116Z,73.16
2023-03-01T23:23:57.666Z,73.00
2023-03-01T23:26:29.567Z,73.23
2023-03-01T23:28:57.823Z,73.00
2023-03-01T23:31:32.656Z,73.36
2023-03-01T23:33:59.579Z,73.52
2023-03-01T23:36:29.440Z,74.30
2023-03-01T23:38:59.884Z,74.16
2023-03-01T23:41:28.705Z,74.93
2023-03-01T23:43:58.205Z,74.65
2023-03-01T23:46:28.649Z,74.63
2023-03-01T23:48:56.410Z,74.94
2023-03-01T23:51:24.424Z,74.66
2023-03-01T23:54:00.193Z,74.16
2023-03-01T23:56:29.824Z,74.98
2023-03-01T23:59:00.211Z,75.27
